sensor_id;sensor_type;location;lat;lon;timestamp;temperature;humidity
45619;DHT22;31343;47.520;19.144;2022-11-09T00:00:47;9.10;99.90
45619;DHT22;31343;47.520;19.144;2022-11-09T00:03:13;9.20;99.90
45619;DHT22;31343;47.520;19.144;2022-11-09T00:05:39;9.10;99.90
45619;DHT22;31343;47.520;19.144;2022-11-09T00:08:06;9.10;99.90
45619;DHT22;31343;47.520;19.144;2022-11-09T00:10:32;9.10;99.90
45619;DHT22;31343;47.520;19.144;2022-11-09T00:12:58;9.10;99.90
45619;DHT22;31343;47.520;19.144;2022-11-09T00:15:24;9.10;99.90
45619;DHT22;31343;47.520;19.144;2022-11-09T00:17:49;9.10;99.90
45619;DHT22;31343;47.520;19.144;2022-11-09T00:20:15;9.10;99.90
45619;DHT22;31343;47.520;19.144;2022-11-09T00:22:41;9.10;99.90
45619;DHT22;31343;47.520;19.144;2022-11-09T00:25:07;9.20;99.90
45619;DHT22;31343;47.520;19.144;2022-11-09T00:27:33;9.20;99.90
45619;DHT22;31343;47.520;19.144;2022-11-09T00:29:58;9.20;99.90
45619;DHT22;31343;47.520;19.144;2022-11-09T00:32:24;9.20;99.90
45619;DHT22;31343;47.520;19.144;2022-11-09T00:34:49;9.20;99.90
45619;DHT22;31343;47.520;19.144;2022-11-09T00:37:15;9.30;99.90
45619;DHT22;31343;47.520;19.144;2022-11-09T00:39:41;9.30;99.90
45619;DHT22;31343;47.520;19.144;2022-11-09T00:42:06;9.30;99.90
45619;DHT22;31343;47.520;19.144;2022-11-09T00:44:32;9.30;99.90
45619;DHT22;31343;47.520;19.144;2022-11-09T00:46:58;9.30;99.90
45619;DHT22;31343;47.520;19.144;2022-11-09T00:49:23;9.10;99.90
45619;DHT22;31343;47.520;19.144;2022-11-09T00:51:49;9.10;99.90
45619;DHT22;31343;47.520;19.144;2022-11-09T00:54:15;9.00;99.90
45619;DHT22;31343;47.520;19.144;2022-11-09T00:56:42;9.00;99.90
45619;DHT22;31343;47.520;19.144;2022-11-09T00:59:09;9.00;99.90
45619;DHT22;31343;47.520;19.144;2022-11-09T01:01:35;8.90;99.90
45619;DHT22;31343;47.520;19.144;2022-11-09T01:04:00;8.90;99.90
45619;DHT22;31343;47.520;19.144;2022-11-09T01:06:26;9.00;99.90
45619;DHT22;31343;47.520;19.144;2022-11-09T01:08:52;8.90;99.90
45619;DHT22;31343;47.520;19.144;2022-11-09T01:11:19;8.90;99.90
45619;DHT22;31343;47.520;19.144;2022-11-09T01:13:45;8.90;99.90
45619;DHT22;31343;47.520;19.144;2022-11-09T01:16:14;8.80;99.90
45619;DHT22;31343;47.520;19.144;2022-11-09T01:18:40;8.80;99.90
45619;DHT22;31343;47.520;19.144;2022-11-09T01:21:09;8.80;99.90
45619;DHT22;31343;47.520;19.144;2022-11-09T01:23:35;8.80;99.90
45619;DHT22;31343;47.520;19.144;2022-11-09T01:26:04;8.70;99.90
45619;DHT22;31343;47.520;19.144;2022-11-09T01:28:30;8.70;99.90
45619;DHT22;31343;47.520;19.144;2022-11-09T01:31:01;8.60;99.90
45619;DHT22;31343;47.520;19.144;2022-11-09T01:33:27;8.60;99.90
45619;DHT22;31343;47.520;19.144;2022-11-09T01:35:52;8.70;99.90
45619;DHT22;31343;47.520;19.144;2022-11-09T01:38:18;8.70;99.90
45619;DHT22;31343;47.520;19.144;2022-11-09T01:40:44;8.60;99.90
45619;DHT22;31343;47.520;19.144;2022-11-09T01:43:18;8.60;99.90
45619;DHT22;31343;47.520;19.144;2022-11-09T01:50:57;8.50;99.90
45619;DHT22;31343;47.520;19.144;2022-11-09T01:53:28;8.40;99.90
45619;DHT22;31343;47.520;19.144;2022-11-09T01:55:57;8.50;99.90
45619;DHT22;31343;47.520;19.144;2022-11-09T01:58:29;8.60;99.90
45619;DHT22;31343;47.520;19.144;2022-11-09T02:00:58;8.40;99.90
45619;DHT22;31343;47.520;19.144;2022-11-09T02:03:34;8.50;99.90
45619;DHT22;31343;47.520;19.144;2022-11-09T02:06:05;8.40;99.90
45619;DHT22;31343;47.520;19.144;2022-11-09T02:08:33;8.40;99.90
45619;DHT22;31343;47.520;19.144;2022-11-09T02:11:07;8.30;99.90
45619;DHT22;31343;47.520;19.144;2022-11-09T02:13:34;8.30;99.90
45619;DHT22;31343;47.520;19.144;2022-11-09T02:16:02;8.30;99.90
45619;DHT22;31343;47.520;19.144;2022-11-09T02:18:30;8.20;99.90
45619;DHT22;31343;47.520;19.144;2022-11-09T02:20:57;8.20;99.90
45619;DHT22;31343;47.520;19.144;2022-11-09T02:23:25;8.20;99.90
45619;DHT22;31343;47.520;19.144;2022-11-09T02:25:58;8.20;99.90
45619;DHT22;31343;47.520;19.144;2022-11-09T02:28:26;8.20;99.90
45619;DHT22;31343;47.520;19.144;2022-11-09T02:30:54;8.20;99.90
45619;DHT22;31343;47.520;19.144;2022-11-09T02:33:21;8.20;99.90
45619;DHT22;31343;47.520;19.144;2022-11-09T02:35:49;8.20;99.90
45619;DHT22;31343;47.520;19.144;2022-11-09T02:38:15;8.20;99.90
45619;DHT22;31343;47.520;19.144;2022-11-09T02:40:44;8.20;99.90
45619;DHT22;31343;47.520;19.144;2022-11-09T02:43:12;8.20;99.90
45619;DHT22;31343;47.520;19.144;2022-11-09T02:45:39;8.20;99.90
45619;DHT22;31343;47.520;19.144;2022-11-09T02:48:05;8.20;99.90
45619;DHT22;31343;47.520;19.144;2022-11-09T02:50:31;8.20;99.90
45619;DHT22;31343;47.520;19.144;2022-11-09T02:52:56;8.20;99.90
45619;DHT22;31343;47.520;19.144;2022-11-09T02:55:22;8.30;99.90
45619;DHT22;31343;47.520;19.144;2022-11-09T02:57:48;8.20;99.90
45619;DHT22;31343;47.520;19.144;2022-11-09T03:00:14;8.30;99.90
45619;DHT22;31343;47.520;19.144;2022-11-09T03:02:40;8.20;99.90
45619;DHT22;31343;47.520;19.144;2022-11-09T03:05:06;8.30;99.90
45619;DHT22;31343;47.520;19.144;2022-11-09T03:07:32;8.30;99.90
45619;DHT22;31343;47.520;19.144;2022-11-09T03:09:57;8.30;99.90
45619;DHT22;31343;47.520;19.144;2022-11-09T03:12:23;8.30;99.90
45619;DHT22;31343;47.520;19.144;2022-11-09T03:15:06;8.30;99.90
45619;DHT22;31343;47.520;19.144;2022-11-09T03:17:33;8.30;99.90
45619;DHT22;31343;47.520;19.144;2022-11-09T03:19:59;8.20;99.90
45619;DHT22;31343;47.520;19.144;2022-11-09T03:22:24;8.30;99.90
45619;DHT22;31343;47.520;19.144;2022-11-09T03:24:50;8.30;99.90
45619;DHT22;31343;47.520;19.144;2022-11-09T03:27:16;8.20;99.90
45619;DHT22;31343;47.520;19.144;2022-11-09T03:29:42;8.20;99.90
45619;DHT22;31343;47.520;19.144;2022-11-09T03:32:08;8.30;99.90
45619;DHT22;31343;47.520;19.144;2022-11-09T03:34:33;8.20;99.90
45619;DHT22;31343;47.520;19.144;2022-11-09T03:36:59;8.30;99.90
45619;DHT22;31343;47.520;19.144;2022-11-09T03:39:25;8.30;99.90
45619;DHT22;31343;47.520;19.144;2022-11-09T03:41:51;8.30;99.90
45619;DHT22;31343;47.520;19.144;2022-11-09T03:44:16;8.30;99.90
45619;DHT22;31343;47.520;19.144;2022-11-09T03:46:44;8.20;99.90
45619;DHT22;31343;47.520;19.144;2022-11-09T03:49:10;8.30;99.90
45619;DHT22;31343;47.520;19.144;2022-11-09T03:51:36;8.20;99.90
45619;DHT22;31343;47.520;19.144;2022-11-09T03:54:01;8.20;99.90
45619;DHT22;31343;47.520;19.144;2022-11-09T03:56:27;8.20;99.90
45619;DHT22;31343;47.520;19.144;2022-11-09T03:58:54;8.30;99.90
45619;DHT22;31343;47.520;19.144;2022-11-09T04:01:20;8.30;99.90
45619;DHT22;31343;47.520;19.144;2022-11-09T04:03:45;8.30;99.90
45619;DHT22;31343;47.520;19.144;2022-11-09T04:06:11;8.30;99.90
45619;DHT22;31343;47.520;19.144;2022-11-09T04:08:36;8.30;99.90
45619;DHT22;31343;47.520;19.144;2022-11-09T04:11:02;8.30;99.90
45619;DHT22;31343;47.520;19.144;2022-11-09T04:13:28;8.30;99.90
45619;DHT22;31343;47.520;19.144;2022-11-09T04:15:53;8.40;99.90
45619;DHT22;31343;47.520;19.144;2022-11-09T04:18:19;8.40;99.90
45619;DHT22;31343;47.520;19.144;2022-11-09T04:20:45;8.40;99.90
45619;DHT22;31343;47.520;19.144;2022-11-09T04:23:12;8.40;99.90
45619;DHT22;31343;47.520;19.144;2022-11-09T04:25:40;8.30;99.90
45619;DHT22;31343;47.520;19.144;2022-11-09T04:28:06;8.30;99.90
45619;DHT22;31343;47.520;19.144;2022-11-09T04:30:34;8.30;99.90
45619;DHT22;31343;47.520;19.144;2022-11-09T04:33:01;8.30;99.90
45619;DHT22;31343;47.520;19.144;2022-11-09T04:35:28;8.30;99.90
45619;DHT22;31343;47.520;19.144;2022-11-09T04:38:00;8.30;99.90
45619;DHT22;31343;47.520;19.144;2022-11-09T04:40:28;8.30;99.90
45619;DHT22;31343;47.520;19.144;2022-11-09T04:42:55;8.40;99.90
45619;DHT22;31343;47.520;19.144;2022-11-09T04:45:23;8.30;99.90
45619;DHT22;31343;47.520;19.144;2022-11-09T04:47:48;8.30;99.90
45619;DHT22;31343;47.520;19.144;2022-11-09T04:50:14;8.30;99.90
45619;DHT22;31343;47.520;19.144;2022-11-09T04:52:40;8.20;99.90
45619;DHT22;31343;47.520;19.144;2022-11-09T04:55:06;8.20;99.90
45619;DHT22;31343;47.520;19.144;2022-11-09T04:57:32;8.20;99.90
45619;DHT22;31343;47.520;19.144;2022-11-09T04:59:58;8.30;99.90
45619;DHT22;31343;47.520;19.144;2022-11-09T05:02:24;8.30;99.90
45619;DHT22;31343;47.520;19.144;2022-11-09T05:04:49;8.30;99.90
45619;DHT22;31343;47.520;19.144;2022-11-09T05:07:15;8.30;99.90
45619;DHT22;31343;47.520;19.144;2022-11-09T05:09:41;8.30;99.90
45619;DHT22;31343;47.520;19.144;2022-11-09T05:12:06;8.30;99.90
45619;DHT22;31343;47.520;19.144;2022-11-09T05:14:32;8.30;99.90
45619;DHT22;31343;47.520;19.144;2022-11-09T05:16:58;8.40;99.90
45619;DHT22;31343;47.520;19.144;2022-11-09T05:19:23;8.30;99.90
45619;DHT22;31343;47.520;19.144;2022-11-09T05:21:49;8.30;99.90
45619;DHT22;31343;47.520;19.144;2022-11-09T05:24:14;8.30;99.90
45619;DHT22;31343;47.520;19.144;2022-11-09T05:26:41;8.30;99.90
45619;DHT22;31343;47.520;19.144;2022-11-09T05:29:11;8.30;99.90
45619;DHT22;31343;47.520;19.144;2022-11-09T05:31:39;8.30;99.90
45619;DHT22;31343;47.520;19.144;2022-11-09T05:34:05;8.30;99.90
45619;DHT22;31343;47.520;19.144;2022-11-09T05:36:32;8.40;99.90
45619;DHT22;31343;47.520;19.144;2022-11-09T05:39:03;8.30;99.90
45619;DHT22;31343;47.520;19.144;2022-11-09T05:41:29;8.30;99.90
45619;DHT22;31343;47.520;19.144;2022-11-09T05:43:55;8.20;99.90
45619;DHT22;31343;47.520;19.144;2022-11-09T05:46:20;8.20;99.90
45619;DHT22;31343;47.520;19.144;2022-11-09T05:48:47;8.20;99.90
45619;DHT22;31343;47.520;19.144;2022-11-09T05:51:13;8.20;99.90
45619;DHT22;31343;47.520;19.144;2022-11-09T05:53:39;8.30;99.90
45619;DHT22;31343;47.520;19.144;2022-11-09T05:56:10;8.20;99.90
45619;DHT22;31343;47.520;19.144;2022-11-09T05:58:37;8.20;99.90
45619;DHT22;31343;47.520;19.144;2022-11-09T06:01:13;8.20;99.90
45619;DHT22;31343;47.520;19.144;2022-11-09T06:03:39;8.10;99.90
45619;DHT22;31343;47.520;19.144;2022-11-09T06:06:07;8.10;99.90
45619;DHT22;31343;47.520;19.144;2022-11-09T06:08:33;8.00;99.90
45619;DHT22;31343;47.520;19.144;2022-11-09T06:11:03;8.00;99.90
45619;DHT22;31343;47.520;19.144;2022-11-09T06:13:30;8.00;99.90
45619;DHT22;31343;47.520;19.144;2022-11-09T06:15:57;8.00;99.90
45619;DHT22;31343;47.520;19.144;2022-11-09T06:18:24;8.10;99.90
45619;DHT22;31343;47.520;19.144;2022-11-09T06:20:54;8.00;99.90
45619;DHT22;31343;47.520;19.144;2022-11-09T06:23:20;8.00;99.90
45619;DHT22;31343;47.520;19.144;2022-11-09T06:25:57;8.00;99.90
45619;DHT22;31343;47.520;19.144;2022-11-09T06:28:23;8.00;99.90
45619;DHT22;31343;47.520;19.144;2022-11-09T06:30:49;7.90;99.90
45619;DHT22;31343;47.520;19.144;2022-11-09T06:33:15;8.00;99.90
45619;DHT22;31343;47.520;19.144;2022-11-09T06:35:41;8.00;99.90
45619;DHT22;31343;47.520;19.144;2022-11-09T06:38:08;8.00;99.90
45619;DHT22;31343;47.520;19.144;2022-11-09T06:40:34;8.10;99.90
45619;DHT22;31343;47.520;19.144;2022-11-09T06:43:03;8.00;99.90
45619;DHT22;31343;47.520;19.144;2022-11-09T06:45:29;8.10;99.90
45619;DHT22;31343;47.520;19.144;2022-11-09T06:47:56;8.10;99.90
45619;DHT22;31343;47.520;19.144;2022-11-09T06:50:23;8.10;99.90
45619;DHT22;31343;47.520;19.144;2022-11-09T06:52:48;8.10;99.90
45619;DHT22;31343;47.520;19.144;2022-11-09T06:55:14;8.10;99.90
45619;DHT22;31343;47.520;19.144;2022-11-09T06:57:40;8.10;99.90
45619;DHT22;31343;47.520;19.144;2022-11-09T07:00:07;8.10;99.90
45619;DHT22;31343;47.520;19.144;2022-11-09T07:02:33;8.00;99.90
45619;DHT22;31343;47.520;19.144;2022-11-09T07:04:58;8.00;99.90
45619;DHT22;31343;47.520;19.144;2022-11-09T07:07:24;8.00;99.90
45619;DHT22;31343;47.520;19.144;2022-11-09T07:09:50;8.10;99.90
45619;DHT22;31343;47.520;19.144;2022-11-09T07:12:15;8.10;99.90
45619;DHT22;31343;47.520;19.144;2022-11-09T07:14:41;8.10;99.90
45619;DHT22;31343;47.520;19.144;2022-11-09T07:17:07;8.20;99.90
45619;DHT22;31343;47.520;19.144;2022-11-09T07:19:32;8.20;99.90
45619;DHT22;31343;47.520;19.144;2022-11-09T07:21:58;8.30;99.90
45619;DHT22;31343;47.520;19.144;2022-11-09T07:24:24;8.30;99.90
45619;DHT22;31343;47.520;19.144;2022-11-09T07:26:49;8.30;99.90
45619;DHT22;31343;47.520;19.144;2022-11-09T07:29:15;8.30;99.90
45619;DHT22;31343;47.520;19.144;2022-11-09T07:31:41;8.40;99.90
45619;DHT22;31343;47.520;19.144;2022-11-09T07:34:07;8.40;99.90
45619;DHT22;31343;47.520;19.144;2022-11-09T07:36:33;8.50;99.90
45619;DHT22;31343;47.520;19.144;2022-11-09T07:39:01;8.50;99.90
45619;DHT22;31343;47.520;19.144;2022-11-09T07:41:27;8.40;99.90
45619;DHT22;31343;47.520;19.144;2022-11-09T07:43:53;8.50;99.90
45619;DHT22;31343;47.520;19.144;2022-11-09T07:46:18;8.60;99.90
45619;DHT22;31343;47.520;19.144;2022-11-09T07:48:44;8.70;99.90
45619;DHT22;31343;47.520;19.144;2022-11-09T07:51:10;8.70;99.90
45619;DHT22;31343;47.520;19.144;2022-11-09T07:53:35;8.60;99.90
45619;DHT22;31343;47.520;19.144;2022-11-09T07:56:02;8.60;99.90
45619;DHT22;31343;47.520;19.144;2022-11-09T07:58:28;8.70;99.90
45619;DHT22;31343;47.520;19.144;2022-11-09T08:00:55;8.80;99.90
45619;DHT22;31343;47.520;19.144;2022-11-09T08:03:22;8.80;99.90
45619;DHT22;31343;47.520;19.144;2022-11-09T08:05:48;8.80;99.90
45619;DHT22;31343;47.520;19.144;2022-11-09T08:08:16;8.90;99.90
45619;DHT22;31343;47.520;19.144;2022-11-09T08:10:43;8.90;99.90
45619;DHT22;31343;47.520;19.144;2022-11-09T08:13:11;8.90;99.90
45619;DHT22;31343;47.520;19.144;2022-11-09T08:15:37;8.90;99.90
45619;DHT22;31343;47.520;19.144;2022-11-09T08:18:09;8.80;99.90
45619;DHT22;31343;47.520;19.144;2022-11-09T08:20:36;8.80;99.90
45619;DHT22;31343;47.520;19.144;2022-11-09T08:23:02;8.90;99.90
45619;DHT22;31343;47.520;19.144;2022-11-09T08:25:27;8.90;99.90
45619;DHT22;31343;47.520;19.144;2022-11-09T08:27:55;8.90;99.90
45619;DHT22;31343;47.520;19.144;2022-11-09T08:30:21;9.00;99.90
45619;DHT22;31343;47.520;19.144;2022-11-09T08:32:48;9.10;99.90
45619;DHT22;31343;47.520;19.144;2022-11-09T08:35:16;9.00;99.90
45619;DHT22;31343;47.520;19.144;2022-11-09T08:37:43;9.10;99.90
45619;DHT22;31343;47.520;19.144;2022-11-09T08:40:09;9.20;99.90
45619;DHT22;31343;47.520;19.144;2022-11-09T08:42:36;9.20;99.90
45619;DHT22;31343;47.520;19.144;2022-11-09T08:45:03;9.20;99.90
45619;DHT22;31343;47.520;19.144;2022-11-09T08:47:29;9.20;99.90
45619;DHT22;31343;47.520;19.144;2022-11-09T08:49:55;9.20;99.90
45619;DHT22;31343;47.520;19.144;2022-11-09T08:52:21;9.10;99.90
45619;DHT22;31343;47.520;19.144;2022-11-09T08:54:47;9.20;99.90
45619;DHT22;31343;47.520;19.144;2022-11-09T08:57:12;9.20;99.90
45619;DHT22;31343;47.520;19.144;2022-11-09T08:59:38;9.20;99.90
45619;DHT22;31343;47.520;19.144;2022-11-09T09:02:04;9.30;99.90
45619;DHT22;31343;47.520;19.144;2022-11-09T09:04:30;9.30;99.90
45619;DHT22;31343;47.520;19.144;2022-11-09T09:06:55;9.30;99.90
45619;DHT22;31343;47.520;19.144;2022-11-09T09:09:22;9.30;99.90
45619;DHT22;31343;47.520;19.144;2022-11-09T09:11:48;9.40;99.90
45619;DHT22;31343;47.520;19.144;2022-11-09T09:14:14;9.40;99.90
45619;DHT22;31343;47.520;19.144;2022-11-09T09:16:41;9.40;99.90
45619;DHT22;31343;47.520;19.144;2022-11-09T09:19:07;9.40;99.90
45619;DHT22;31343;47.520;19.144;2022-11-09T09:21:33;9.40;99.90
45619;DHT22;31343;47.520;19.144;2022-11-09T09:23:58;9.40;99.90
45619;DHT22;31343;47.520;19.144;2022-11-09T09:26:24;9.40;99.90
45619;DHT22;31343;47.520;19.144;2022-11-09T09:28:50;9.40;99.90
45619;DHT22;31343;47.520;19.144;2022-11-09T09:31:16;9.40;99.90
45619;DHT22;31343;47.520;19.144;2022-11-09T09:33:42;9.40;99.90
45619;DHT22;31343;47.520;19.144;2022-11-09T09:36:21;9.50;99.90
45619;DHT22;31343;47.520;19.144;2022-11-09T09:38:52;9.50;99.90
45619;DHT22;31343;47.520;19.144;2022-11-09T09:43:56;9.60;99.90
45619;DHT22;31343;47.520;19.144;2022-11-09T09:46:31;9.60;99.90
45619;DHT22;31343;47.520;19.144;2022-11-09T09:49:18;9.60;99.90
45619;DHT22;31343;47.520;19.144;2022-11-09T09:51:52;9.70;99.90
45619;DHT22;31343;47.520;19.144;2022-11-09T09:54:32;9.70;99.90
45619;DHT22;31343;47.520;19.144;2022-11-09T09:57:00;9.70;99.90
45619;DHT22;31343;47.520;19.144;2022-11-09T09:59:36;9.70;99.90
45619;DHT22;31343;47.520;19.144;2022-11-09T10:04:47;9.70;99.90
45619;DHT22;31343;47.520;19.144;2022-11-09T10:07:37;9.80;99.90
45619;DHT22;31343;47.520;19.144;2022-11-09T10:12:56;9.80;99.90
45619;DHT22;31343;47.520;19.144;2022-11-09T10:15:53;9.90;99.90
45619;DHT22;31343;47.520;19.144;2022-11-09T10:18:23;9.90;99.90
45619;DHT22;31343;47.520;19.144;2022-11-09T10:26:42;10.00;99.90
45619;DHT22;31343;47.520;19.144;2022-11-09T10:31:49;10.00;99.90
45619;DHT22;31343;47.520;19.144;2022-11-09T10:34:28;9.90;99.90
45619;DHT22;31343;47.520;19.144;2022-11-09T10:37:39;10.00;99.90
45619;DHT22;31343;47.520;19.144;2022-11-09T10:40:15;10.00;99.90
45619;DHT22;31343;47.520;19.144;2022-11-09T10:42:57;10.00;99.90
45619;DHT22;31343;47.520;19.144;2022-11-09T10:47:55;10.00;99.90
45619;DHT22;31343;47.520;19.144;2022-11-09T10:56:17;10.00;99.90
45619;DHT22;31343;47.520;19.144;2022-11-09T10:58:48;9.90;99.90
45619;DHT22;31343;47.520;19.144;2022-11-09T11:01:22;10.00;99.90
45619;DHT22;31343;47.520;19.144;2022-11-09T11:03:51;9.90;99.90
45619;DHT22;31343;47.520;19.144;2022-11-09T11:08:50;10.00;99.90
45619;DHT22;31343;47.520;19.144;2022-11-09T11:13:49;9.90;99.90
45619;DHT22;31343;47.520;19.144;2022-11-09T11:16:28;9.90;99.90
45619;DHT22;31343;47.520;19.144;2022-11-09T11:18:57;9.90;99.90
45619;DHT22;31343;47.520;19.144;2022-11-09T11:21:24;9.90;99.90
45619;DHT22;31343;47.520;19.144;2022-11-09T11:24:11;9.90;99.90
45619;DHT22;31343;47.520;19.144;2022-11-09T11:26:55;10.00;99.90
45619;DHT22;31343;47.520;19.144;2022-11-09T11:31:50;10.00;99.90
45619;DHT22;31343;47.520;19.144;2022-11-09T11:34:16;10.00;99.90
45619;DHT22;31343;47.520;19.144;2022-11-09T11:42:24;9.90;99.90
45619;DHT22;31343;47.520;19.144;2022-11-09T11:45:28;9.90;99.90
45619;DHT22;31343;47.520;19.144;2022-11-09T11:56:46;10.00;99.90
45619;DHT22;31343;47.520;19.144;2022-11-09T12:08:20;10.10;99.90
45619;DHT22;31343;47.520;19.144;2022-11-09T12:11:06;10.10;99.90
45619;DHT22;31343;47.520;19.144;2022-11-09T12:22:40;10.20;99.90
45619;DHT22;31343;47.520;19.144;2022-11-09T12:25:20;10.10;99.90
45619;DHT22;31343;47.520;19.144;2022-11-09T12:27:52;10.10;99.90
45619;DHT22;31343;47.520;19.144;2022-11-09T12:30:22;10.10;99.90
45619;DHT22;31343;47.520;19.144;2022-11-09T12:32:57;10.10;99.90
45619;DHT22;31343;47.520;19.144;2022-11-09T12:39:03;10.00;99.90
45619;DHT22;31343;47.520;19.144;2022-11-09T12:41:33;10.10;99.90
45619;DHT22;31343;47.520;19.144;2022-11-09T12:46:51;10.00;99.90
45619;DHT22;31343;47.520;19.144;2022-11-09T12:49:34;10.00;99.90
45619;DHT22;31343;47.520;19.144;2022-11-09T12:52:05;10.10;99.90
45619;DHT22;31343;47.520;19.144;2022-11-09T12:54:34;10.10;99.90
45619;DHT22;31343;47.520;19.144;2022-11-09T12:57:05;10.10;99.90
45619;DHT22;31343;47.520;19.144;2022-11-09T12:59:34;10.10;99.90
45619;DHT22;31343;47.520;19.144;2022-11-09T13:02:02;10.10;99.90
45619;DHT22;31343;47.520;19.144;2022-11-09T13:04:28;10.10;99.90
45619;DHT22;31343;47.520;19.144;2022-11-09T13:09:40;10.10;99.90
45619;DHT22;31343;47.520;19.144;2022-11-09T13:12:31;10.10;99.90
45619;DHT22;31343;47.520;19.144;2022-11-09T13:15:21;10.20;99.90
45619;DHT22;31343;47.520;19.144;2022-11-09T13:20:49;10.10;99.90
45619;DHT22;31343;47.520;19.144;2022-11-09T13:23:33;10.10;99.90
45619;DHT22;31343;47.520;19.144;2022-11-09T13:26:00;10.10;99.90
45619;DHT22;31343;47.520;19.144;2022-11-09T13:30:58;10.10;99.90
45619;DHT22;31343;47.520;19.144;2022-11-09T13:33:29;10.10;99.90
45619;DHT22;31343;47.520;19.144;2022-11-09T13:36:17;10.10;99.90
45619;DHT22;31343;47.520;19.144;2022-11-09T13:38:43;10.00;99.90
45619;DHT22;31343;47.520;19.144;2022-11-09T13:44:26;10.10;99.90
45619;DHT22;31343;47.520;19.144;2022-11-09T13:46:52;10.00;99.90
45619;DHT22;31343;47.520;19.144;2022-11-09T13:49:41;10.00;99.90
45619;DHT22;31343;47.520;19.144;2022-11-09T13:52:48;10.00;99.90
45619;DHT22;31343;47.520;19.144;2022-11-09T13:55:29;10.00;99.90
45619;DHT22;31343;47.520;19.144;2022-11-09T13:57:58;10.00;99.90
45619;DHT22;31343;47.520;19.144;2022-11-09T14:00:25;10.00;99.90
45619;DHT22;31343;47.520;19.144;2022-11-09T14:05:33;10.10;99.90
45619;DHT22;31343;47.520;19.144;2022-11-09T14:08:03;10.00;99.90
45619;DHT22;31343;47.520;19.144;2022-11-09T14:16:08;10.10;99.90
45619;DHT22;31343;47.520;19.144;2022-11-09T14:21:46;10.00;99.90
45619;DHT22;31343;47.520;19.144;2022-11-09T14:24:19;10.00;99.90
45619;DHT22;31343;47.520;19.144;2022-11-09T14:29:25;10.10;99.90
45619;DHT22;31343;47.520;19.144;2022-11-09T14:31:51;10.00;99.90
45619;DHT22;31343;47.520;19.144;2022-11-09T14:34:17;10.10;99.90
45619;DHT22;31343;47.520;19.144;2022-11-09T14:36:43;10.00;99.90
45619;DHT22;31343;47.520;19.144;2022-11-09T14:39:35;10.00;99.90
45619;DHT22;31343;47.520;19.144;2022-11-09T14:42:05;10.00;99.90
45619;DHT22;31343;47.520;19.144;2022-11-09T14:44:36;10.00;99.90
45619;DHT22;31343;47.520;19.144;2022-11-09T14:47:18;10.00;99.90
45619;DHT22;31343;47.520;19.144;2022-11-09T14:49:46;10.00;99.90
45619;DHT22;31343;47.520;19.144;2022-11-09T14:52:18;9.90;99.90
45619;DHT22;31343;47.520;19.144;2022-11-09T14:54:46;10.00;99.90
45619;DHT22;31343;47.520;19.144;2022-11-09T14:57:14;10.00;99.90
45619;DHT22;31343;47.520;19.144;2022-11-09T14:59:43;10.00;99.90
45619;DHT22;31343;47.520;19.144;2022-11-09T15:02:20;10.00;99.90
45619;DHT22;31343;47.520;19.144;2022-11-09T15:05:02;10.00;99.90
45619;DHT22;31343;47.520;19.144;2022-11-09T15:07:37;10.00;99.90
45619;DHT22;31343;47.520;19.144;2022-11-09T15:10:04;10.00;99.90
45619;DHT22;31343;47.520;19.144;2022-11-09T15:12:31;10.00;99.90
45619;DHT22;31343;47.520;19.144;2022-11-09T15:15:03;10.00;99.90
45619;DHT22;31343;47.520;19.144;2022-11-09T15:17:32;10.00;99.90
45619;DHT22;31343;47.520;19.144;2022-11-09T15:25:34;10.00;99.90
45619;DHT22;31343;47.520;19.144;2022-11-09T15:33:27;10.10;99.90
45619;DHT22;31343;47.520;19.144;2022-11-09T15:36:28;10.10;99.90
45619;DHT22;31343;47.520;19.144;2022-11-09T15:38:58;10.10;99.90
45619;DHT22;31343;47.520;19.144;2022-11-09T15:41:25;10.10;99.90
45619;DHT22;31343;47.520;19.144;2022-11-09T15:43:51;10.10;99.90
45619;DHT22;31343;47.520;19.144;2022-11-09T15:46:22;10.10;99.90
45619;DHT22;31343;47.520;19.144;2022-11-09T15:48:49;10.10;99.90
45619;DHT22;31343;47.520;19.144;2022-11-09T15:51:15;10.00;99.90
45619;DHT22;31343;47.520;19.144;2022-11-09T15:53:41;10.10;99.90
45619;DHT22;31343;47.520;19.144;2022-11-09T15:56:19;10.00;99.90
45619;DHT22;31343;47.520;19.144;2022-11-09T15:58:46;10.00;99.90
45619;DHT22;31343;47.520;19.144;2022-11-09T16:01:13;10.00;99.90
45619;DHT22;31343;47.520;19.144;2022-11-09T16:03:39;10.00;99.90
45619;DHT22;31343;47.520;19.144;2022-11-09T16:06:07;10.00;99.90
45619;DHT22;31343;47.520;19.144;2022-11-09T16:08:33;10.10;99.90
45619;DHT22;31343;47.520;19.144;2022-11-09T16:11:02;10.00;99.90
45619;DHT22;31343;47.520;19.144;2022-11-09T16:13:29;9.90;99.90
45619;DHT22;31343;47.520;19.144;2022-11-09T16:16:01;10.00;99.90
45619;DHT22;31343;47.520;19.144;2022-11-09T16:18:27;10.10;99.90
45619;DHT22;31343;47.520;19.144;2022-11-09T16:20:53;10.00;99.90
45619;DHT22;31343;47.520;19.144;2022-11-09T16:23:18;10.10;99.90
45619;DHT22;31343;47.520;19.144;2022-11-09T16:25:44;10.10;99.90
45619;DHT22;31343;47.520;19.144;2022-11-09T16:28:10;10.10;99.90
45619;DHT22;31343;47.520;19.144;2022-11-09T16:30:35;10.10;99.90
45619;DHT22;31343;47.520;19.144;2022-11-09T16:33:01;10.10;99.90
45619;DHT22;31343;47.520;19.144;2022-11-09T16:35:27;10.20;99.90
45619;DHT22;31343;47.520;19.144;2022-11-09T16:37:52;10.20;99.90
45619;DHT22;31343;47.520;19.144;2022-11-09T16:40:19;10.20;99.90
45619;DHT22;31343;47.520;19.144;2022-11-09T16:42:46;10.10;99.90
45619;DHT22;31343;47.520;19.144;2022-11-09T16:45:14;10.20;99.90
45619;DHT22;31343;47.520;19.144;2022-11-09T16:47:45;10.10;99.90
45619;DHT22;31343;47.520;19.144;2022-11-09T16:50:12;10.20;99.90
45619;DHT22;31343;47.520;19.144;2022-11-09T16:52:38;10.20;99.90
45619;DHT22;31343;47.520;19.144;2022-11-09T16:55:04;10.20;99.90
45619;DHT22;31343;47.520;19.144;2022-11-09T16:57:33;10.10;99.90
45619;DHT22;31343;47.520;19.144;2022-11-09T16:59:58;10.10;99.90
45619;DHT22;31343;47.520;19.144;2022-11-09T17:02:25;10.20;99.90
45619;DHT22;31343;47.520;19.144;2022-11-09T17:04:51;10.20;99.90
45619;DHT22;31343;47.520;19.144;2022-11-09T17:07:17;10.20;99.90
45619;DHT22;31343;47.520;19.144;2022-11-09T17:09:42;10.20;99.90
45619;DHT22;31343;47.520;19.144;2022-11-09T17:12:08;10.30;99.90
45619;DHT22;31343;47.520;19.144;2022-11-09T17:14:34;10.30;99.90
45619;DHT22;31343;47.520;19.144;2022-11-09T17:17:00;10.30;99.90
45619;DHT22;31343;47.520;19.144;2022-11-09T17:19:30;10.40;99.90
45619;DHT22;31343;47.520;19.144;2022-11-09T17:21:57;10.30;99.90
45619;DHT22;31343;47.520;19.144;2022-11-09T17:24:23;10.40;99.90
45619;DHT22;31343;47.520;19.144;2022-11-09T17:26:48;10.40;99.90